The Official Home Page Of The Professional Rodeo Cowboys Association PRCA RAM WORLD STANDINGS
ProRodeoTv.Com



Official Gear Of The PRCA

PRCA Stock Statistics

SEARCH BY:
Stock Rodeo Contestant Stock Contractor

Michael Hough

EVENT:
Unofficial results reflect placement at time of Web posting and can change.

SEASON BREAKDOWN

Season Attempts Qual Rides Re-rides Ride %
2018 25 4 0 16.00 %
2017 21 3 0 14.29 %
2013 11 2 0 18.18 %
2012 23 2 0 8.70 %
2009 1 0 0 0.00 %
Totals 81 11 0 0.00 %

RODEO DETAIL

Date Location Rodeo SC Brand Ride Comments Stock Score Contestant Score
9/16/2018 Marysville, CA Marysville Stampede RO 598 0.00 20.50 / 22.00 0.00 / 0.00
9/15/2018 Santa Ynez, CA Santa Ynez Valley Wine Country Rodeo EM 8X 0.00 21.00 / 21.00 0.00 / 0.00
9/9/2018 Banning, CA Banning Stagecoach Days PRCA Rodeo HR 4005 0.00 21.00 / 21.00 0.00 / 0.00
9/7/2018 Banning, CA Banning Stagecoach Days PRCA Rodeo HR 3426 0.00 22.00 / 21.00 0.00 / 0.00
8/19/2018 Norco, CA Norco Mounted Posse PRCA Rodeo DG C27 0.00 21.00 / 19.00 0.00 / 0.00
8/17/2018 Tehachapi, CA Tehachapi Pro Rodeo JD 204 73.50 20.50 / 20.50 17.00 / 15.50
7/26/2018 Cheyenne, WY Cheyenne Frontier Days SH 32 0.00 21.00 / 20.50 0.00 / 0.00
7/25/2018 Cheyenne, WY Cheyenne Frontier Days DK 314 0.00 20.00 / 21.00 0.00 / 0.00
7/21/2018 Salinas, CA California Rodeo Salinas JD 7-11 0.00 21.00 / 0.00 0.00 / 0.00
7/2/2018 Folsom, CA Folsom Pro Rodeo FU 31 0.00 21.50 / 19.00 0.00 / 0.00
5/5/2018 Stonyford, CA Stonyford Rodeo TB 412 0.00 20.00 / 19.50 0.00 / 0.00
5/4/2018 Bakersfield, CA Stampede Days Rodeo JD 004 0.00 21.00 / 20.00 0.00 / 0.00
4/28/2018 Springville, CA Springville Sierra Rodeo JD 001 75.50 19.00 / 18.00 19.50 / 19.00
4/27/2018 Clovis, CA Clovis Rodeo TB 43 0.00 20.00 / 19.00 0.00 / 0.00
4/26/2018 Lakeside, CA Lakeside Rodeo ST 233 0.00 21.00 / 19.50 0.00 / 0.00
4/20/2018 Red Bluff, CA Red Bluff Round-Up CH 337 0.00 19.00 / 21.50 0.00 / 0.00
4/14/2018 Oakdale, CA Oakdale Saddle Club Rodeo BS +29 0.00 21.00 / 18.50 0.00 / 0.00
3/11/2018 Scottsdale, AZ Parada Del Sol HR 3426 0.00 19.00 / 19.00 0.00 / 0.00
2/24/2018 Tucson, AZ La Fiesta De Los Vaqueros SR 191 0.00 22.00 / 22.00 0.00 / 0.00
2/11/2018 Yuma, AZ 73rd Annual Yuma Jaycees Silver Spur Rodeo HR 4001 76.00 19.00 / 18.00 20.00 / 19.00
11/11/2017 Brawley, CA Brawley Cattle Call Rodeo FU 6408/3 0.00 21.50 / 0.00 0.00 / 0.00
10/15/2017 Lancaster, CA California Circuit Finals TB Z906 40.00 10.00 / 10.00 15.00 / 5.00
10/14/2017 Lancaster, CA California Circuit Finals TB 0601 0.00 20.00 / 20.00 0.00 / 0.00
10/13/2017 Lancaster, CA California Circuit Finals TB 228 0.00 21.00 / 20.00 0.00 / 0.00
10/7/2017 San Dimas, CA San Dimas Western Days Rodeo TB 322 0.00 19.00 / 18.00 0.00 / 0.00
Page of 1
Per Page
 
 
 
PRCA National Sponsors
MGM Grand Polaris Ranger American Quarter Horse Association Cinch Jeans
Copyright © 2018 Professional Rodeo Cowboys Association. All rights reserved. No portion of ProRodeo.com may be duplicated, redistributed or manipulated in any form. By accessing any information beyond this page, you agree to abide by the Terms of Use.
PRCA Wrangler National Finals Rodeo Wrangler ProRodeo Tour Finale Presented by Justin Boots Xtreme Bulls RAM National Circuit Finals Rodeo ProRodeo Gear ProRodeo Tour